Time;durP1;ratioP1;P1;durP2;ratioP2;P2;SDS_P1;SDS_P2;PMS_P1;PMS_P2;Temp;Humidity;BMP_temperature;BMP_pressure;BME280_temperature;BME280_humidity;BME280_pressure;Samples;Min_cycle;Max_cycle;Signal;HPM_P1;HPM_P2
2023/12/10 00:02:23;;;;;;;7.28;3.33;;;1.70;79.40;;;;;;5068703;28;20398;-70
2023/12/10 00:04:50;;;;;;;5.70;3.95;;;1.70;79.20;;;;;;5052787;28;20563;-75
2023/12/10 00:07:16;;;;;;;5.25;2.83;;;1.80;79.00;;;;;;5051566;28;20025;-70
2023/12/10 00:09:42;;;;;;;7.47;2.60;;;1.80;78.70;;;;;;5053002;28;20037;-70
2023/12/10 00:12:09;;;;;;;8.93;3.55;;;1.80;78.70;;;;;;5050931;28;20487;-71
2023/12/10 00:14:35;;;;;;;6.82;2.72;;;1.80;78.70;;;;;;5052706;28;20031;-71
2023/12/10 00:17:01;;;;;;;8.65;4.07;;;1.80;78.70;;;;;;5052765;28;20044;-70
2023/12/10 00:19:27;;;;;;;5.95;2.97;;;1.80;78.80;;;;;;5054020;28;20040;-70
2023/12/10 00:21:53;;;;;;;7.75;3.95;;;1.80;78.70;;;;;;5072211;28;20043;-74
2023/12/10 00:24:22;;;;;;;6.90;3.58;;;1.80;78.90;;;;;;5072057;28;20025;-74
2023/12/10 00:26:48;;;;;;;6.00;3.20;;;1.70;79.00;;;;;;5072544;28;20070;-70
2023/12/10 00:29:14;;;;;;;6.78;3.15;;;1.70;79.20;;;;;;5071344;28;20038;-71
2023/12/10 00:31:59;;;;;;;8.98;4.13;;;1.70;79.20;;;;;;5053894;28;20048;-74
2023/12/10 00:34:25;;;;;;;6.63;3.60;;;1.70;79.30;;;;;;5072394;28;20040;-74
2023/12/10 00:36:51;;;;;;;6.82;4.72;;;1.70;79.20;;;;;;5065770;28;20340;-70
2023/12/10 00:39:17;;;;;;;;;;;1.70;79.40;;;;;;5087680;28;20040;-74
2023/12/10 00:41:43;;;;;;;9.25;4.88;;;1.70;79.60;;;;;;5053703;28;19921;-74
2023/12/10 00:44:09;;;;;;;7.35;3.75;;;1.70;79.50;;;;;;5073124;28;20068;-74
2023/12/10 00:46:35;;;;;;;3.65;2.28;;;1.70;79.80;;;;;;5070900;28;20131;-71
2023/12/10 00:49:01;;;;;;;6.95;3.47;;;1.70;79.80;;;;;;5072462;28;20036;-74
2023/12/10 00:51:28;;;;;;;10.23;4.55;;;1.60;79.80;;;;;;5066696;28;20498;-70
2023/12/10 00:53:54;;;;;;;8.35;3.65;;;1.70;79.90;;;;;;5070820;28;20059;-71
2023/12/10 00:56:20;;;;;;;6.25;3.55;;;1.70;79.90;;;;;;5072166;28;20032;-74
2023/12/10 00:58:46;;;;;;;3.53;2.50;;;1.70;79.80;;;;;;5070662;28;20106;-74
2023/12/10 01:01:12;;;;;;;6.95;3.28;;;1.70;79.80;;;;;;5071562;28;20037;-70
2023/12/10 01:03:38;;;;;;;5.80;3.50;;;1.70;79.90;;;;;;5071682;28;20074;-74
2023/12/10 01:06:06;;;;;;;10.85;4.30;;;1.70;79.80;;;;;;5070945;28;20048;-70
2023/12/10 01:08:32;;;;;;;13.15;7.05;;;1.70;79.80;;;;;;5070817;28;20131;-74
2023/12/10 01:10:59;;;;;;;8.18;5.18;;;1.70;79.80;;;;;;5087218;28;20039;-71
2023/12/10 01:13:25;;;;;;;9.68;4.78;;;1.70;79.30;;;;;;5087383;28;20040;-70
2023/12/10 01:16:12;;;;;;;9.18;4.18;;;1.70;79.40;;;;;;5072139;28;20397;-74
2023/12/10 01:18:38;;;;;;;7.60;2.63;;;1.70;80.00;;;;;;5070799;28;20150;-71
2023/12/10 01:21:09;;;;;;;11.52;5.35;;;1.80;80.00;;;;;;5071672;28;20076;-74
2023/12/10 01:23:39;;;;;;;5.63;4.10;;;1.80;79.80;;;;;;5071808;28;20048;-74
2023/12/10 01:26:06;;;;;;;8.45;3.95;;;1.80;79.70;;;;;;5071640;28;20029;-70
2023/12/10 01:28:33;;;;;;;7.68;3.85;;;1.80;79.80;;;;;;5053944;28;20040;-70
2023/12/10 01:31:00;;;;;;;14.80;7.82;;;1.80;79.70;;;;;;5070039;28;20032;-70
2023/12/10 01:33:26;;;;;;;14.77;6.95;;;1.70;79.80;;;;;;5070425;28;20059;-71
2023/12/10 01:35:52;;;;;;;18.77;8.52;;;1.80;79.90;;;;;;5072300;28;20039;-74
2023/12/10 01:38:18;;;;;;;10.35;5.43;;;1.70;79.80;;;;;;5074202;28;20047;-71
2023/12/10 01:40:44;;;;;;;9.70;5.20;;;1.80;79.80;;;;;;5073750;28;20554;-74
2023/12/10 01:43:11;;;;;;;3.53;1.48;;;1.80;79.60;;;;;;5075209;28;20101;-74
2023/12/10 01:45:37;;;;;;;9.73;5.78;;;1.80;79.70;;;;;;5075340;28;20516;-70
2023/12/10 01:48:06;;;;;;;10.48;6.70;;;1.80;79.70;;;;;;5091147;28;20051;-74
2023/12/10 01:50:35;;;;;;;10.35;4.80;;;1.80;79.60;;;;;;5073366;28;20059;-74
2023/12/10 01:53:02;;;;;;;15.20;5.90;;;1.80;79.60;;;;;;5075069;28;20035;-70
2023/12/10 01:55:30;;;;;;;11.98;7.43;;;1.80;79.50;;;;;;5073988;28;20037;-74
2023/12/10 01:57:56;;;;;;;15.07;5.82;;;1.80;79.40;;;;;;5075157;28;20478;-74
2023/12/10 02:00:22;;;;;;;5.38;3.47;;;1.90;79.50;;;;;;5056626;28;20509;-71
2023/12/10 02:02:48;;;;;;;7.57;4.38;;;1.90;79.40;;;;;;5057091;28;20409;-74
2023/12/10 02:05:14;;;;;;;9.45;5.35;;;1.80;78.70;;;;;;5090362;28;20048;-74
2023/12/10 02:10:26;;;;;;;10.93;6.32;;;1.80;79.00;;;;;;5073307;28;20448;-70
2023/12/10 02:12:53;;;;;;;6.43;5.05;;;1.80;79.50;;;;;;5074973;28;20024;-74
2023/12/10 02:15:20;;;;;;;8.02;5.65;;;1.90;79.40;;;;;;5090054;28;20072;-70
2023/12/10 02:17:48;;;;;;;15.07;6.95;;;1.90;79.30;;;;;;5056702;28;20024;-70
2023/12/10 02:20:16;;;;;;;12.07;5.50;;;1.90;79.50;;;;;;5072744;28;20434;-70
2023/12/10 02:23:12;;;;;;;8.07;5.90;;;1.90;79.50;;;;;;5090440;28;20405;-71
2023/12/10 02:25:39;;;;;;;7.57;4.82;;;1.90;79.50;;;;;;5090133;28;20461;-70
2023/12/10 02:28:08;;;;;;;9.68;4.15;;;1.80;78.90;;;;;;5090194;28;20111;-74
2023/12/10 02:30:35;;;;;;;9.38;5.13;;;1.80;79.60;;;;;;5074194;28;20028;-70
2023/12/10 02:33:02;;;;;;;9.15;5.70;;;1.80;79.80;;;;;;5073283;28;20029;-70
2023/12/10 02:35:29;;;;;;;13.52;6.03;;;1.80;79.90;;;;;;5090045;28;20033;-74
2023/12/10 02:37:55;;;;;;;;;;;1.90;80.00;;;;;;5073865;28;20032;-74
2023/12/10 02:40:21;;;;;;;9.95;6.78;;;1.80;79.60;;;;;;5073820;28;20369;-71
2023/12/10 02:42:48;;;;;;;9.68;6.72;;;1.80;79.40;;;;;;5074165;28;20486;-74
2023/12/10 02:45:15;;;;;;;13.88;6.38;;;1.80;79.50;;;;;;5074035;28;20032;-74
2023/12/10 02:47:42;;;;;;;8.27;4.78;;;1.80;79.70;;;;;;5073035;28;20036;-71
2023/12/10 02:50:09;;;;;;;8.50;5.38;;;1.80;79.70;;;;;;5072310;28;20068;-72
2023/12/10 02:52:39;;;;;;;16.98;7.00;;;1.80;79.70;;;;;;5072787;28;20040;-70
2023/12/10 02:55:06;;;;;;;8.15;6.00;;;1.80;79.70;;;;;;5089370;28;20124;-71
2023/12/10 02:57:32;;;;;;;22.13;5.10;;;1.90;79.70;;;;;;5073005;28;20047;-74
2023/12/10 02:59:58;;;;;;;17.17;6.50;;;1.90;79.70;;;;;;5089812;28;20040;-71
2023/12/10 03:02:25;;;;;;;17.73;10.07;;;1.90;79.60;;;;;;5073617;28;20055;-70
2023/12/10 03:04:51;;;;;;;7.95;6.28;;;1.90;80.40;;;;;;5073744;28;20509;-74
2023/12/10 03:07:17;;;;;;;13.65;7.03;;;2.00;78.90;;;;;;5072815;28;20036;-74
2023/12/10 03:09:44;;;;;;;6.70;5.25;;;1.90;79.50;;;;;;5055793;28;20037;-70
2023/12/10 03:12:10;;;;;;;10.48;5.90;;;2.00;79.40;;;;;;5072003;28;20508;-71
2023/12/10 03:14:37;;;;;;;9.73;6.40;;;1.90;78.80;;;;;;5073228;28;20094;-73
2023/12/10 03:17:03;;;;;;;12.00;5.95;;;1.90;79.60;;;;;;5073756;28;20053;-73
2023/12/10 03:19:29;;;;;;;13.50;6.30;;;1.90;79.70;;;;;;5072356;28;20044;-74
2023/12/10 03:21:55;;;;;;;11.82;6.13;;;1.90;79.90;;;;;;5071646;28;20039;-73
2023/12/10 03:24:21;;;;;;;10.90;4.25;;;1.90;80.00;;;;;;5073510;28;20045;-74
2023/12/10 03:26:47;;;;;;;3.67;3.10;;;1.90;80.00;;;;;;5073471;28;20024;-74
2023/12/10 03:29:13;;;;;;;6.18;3.33;;;1.90;80.10;;;;;;5072055;28;20078;-74
2023/12/10 03:31:39;;;;;;;10.05;5.18;;;1.90;80.30;;;;;;5072985;28;20036;-74
2023/12/10 03:34:06;;;;;;;6.07;2.72;;;1.90;80.20;;;;;;5072217;28;20048;-73
2023/12/10 03:36:32;;;;;;;15.73;5.85;;;1.90;80.30;;;;;;5071900;28;20036;-71
2023/12/10 03:38:58;;;;;;;8.73;5.05;;;1.90;80.30;;;;;;5055485;28;20048;-74
2023/12/10 03:41:24;;;;;;;10.52;4.70;;;1.90;80.40;;;;;;5071293;28;20032;-74
2023/12/10 03:43:50;;;;;;;9.27;5.28;;;1.90;80.30;;;;;;5072774;28;20504;-70
2023/12/10 03:46:16;;;;;;;7.40;4.03;;;1.90;80.30;;;;;;5073239;28;20064;-73
2023/12/10 03:48:42;;;;;;;8.68;5.05;;;1.80;80.50;;;;;;5073206;28;20045;-73
2023/12/10 03:51:08;;;;;;;9.93;4.07;;;1.80;80.80;;;;;;5071556;28;20040;-70
2023/12/10 03:53:34;;;;;;;4.85;3.08;;;1.80;81.00;;;;;;5071406;28;20045;-74
2023/12/10 03:56:00;;;;;;;8.90;6.40;;;1.70;81.20;;;;;;5071525;28;20047;-70
2023/12/10 03:58:26;;;;;;;11.05;6.43;;;1.80;81.20;;;;;;5072685;28;20036;-71
2023/12/10 04:00:52;;;;;;;7.53;4.82;;;1.80;81.00;;;;;;5070996;28;20031;-70
2023/12/10 04:03:18;;;;;;;8.75;5.03;;;1.80;80.90;;;;;;5071376;28;20036;-73
2023/12/10 04:05:44;;;;;;;8.77;4.55;;;1.90;80.80;;;;;;5072807;28;20058;-70
2023/12/10 04:08:10;;;;;;;12.32;3.65;;;1.90;80.70;;;;;;5071219;28;20040;-74
2023/12/10 04:10:36;;;;;;;7.40;4.43;;;1.90;80.70;;;;;;5072112;28;20039;-73
2023/12/10 04:13:03;;;;;;;4.13;3.33;;;1.90;80.60;;;;;;5071519;28;20049;-73
2023/12/10 04:15:29;;;;;;;;;;;1.90;80.50;;;;;;5072970;28;20056;-73
2023/12/10 04:17:55;;;;;;;3.95;1.80;;;2.00;80.30;;;;;;5072637;28;19919;-73
2023/12/10 04:20:21;;;;;;;12.73;4.65;;;2.00;79.90;;;;;;5071904;28;20036;-73
2023/12/10 04:22:47;;;;;;;12.85;5.35;;;2.00;80.00;;;;;;5087906;28;20029;-73
2023/12/10 04:25:13;;;;;;;7.57;4.25;;;2.10;79.90;;;;;;5071010;28;20059;-73
2023/12/10 04:27:39;;;;;;;8.00;4.70;;;2.10;79.30;;;;;;5071391;28;20398;-73
2023/12/10 04:30:07;;;;;;;12.38;5.47;;;2.10;79.80;;;;;;5072358;28;20111;-73
2023/12/10 04:32:33;;;;;;;9.93;5.10;;;2.10;79.60;;;;;;5072443;28;20508;-73
2023/12/10 04:34:59;;;;;;;;;;;2.10;79.20;;;;;;5071643;28;20044;-74
2023/12/10 04:37:25;;;;;;;12.38;5.38;;;2.20;79.80;;;;;;5072428;28;19920;-74
2023/12/10 04:39:53;;;;;;;6.65;4.47;;;2.10;79.60;;;;;;5072311;28;20032;-71
2023/12/10 04:42:19;;;;;;;12.60;6.28;;;2.10;79.70;;;;;;5053866;28;20036;-70
2023/12/10 04:44:45;;;;;;;;;;;2.10;79.20;;;;;;5071585;28;20041;-71
2023/12/10 04:47:11;;;;;;;6.80;4.97;;;2.10;79.80;;;;;;5087719;28;19932;-73
2023/12/10 04:49:37;;;;;;;7.45;5.18;;;2.10;79.80;;;;;;5072654;28;20032;-70
2023/12/10 04:52:04;;;;;;;6.43;3.15;;;2.10;80.00;;;;;;5070394;28;20579;-71
2023/12/10 04:54:30;;;;;;;13.75;5.80;;;2.20;79.20;;;;;;5071996;28;20029;-71
2023/12/10 04:56:56;;;;;;;4.03;2.33;;;2.20;79.90;;;;;;5054307;28;20528;-74
2023/12/10 04:59:22;;;;;;;7.88;4.50;;;2.10;79.70;;;;;;5072402;28;20067;-73
2023/12/10 05:01:48;;;;;;;3.78;2.65;;;2.20;79.70;;;;;;5071731;28;20037;-71
2023/12/10 05:04:14;;;;;;;4.18;1.92;;;2.20;79.70;;;;;;5053509;28;20421;-73
2023/12/10 05:06:40;;;;;;;4.53;2.88;;;2.20;79.60;;;;;;5070902;28;20110;-70
2023/12/10 05:09:06;;;;;;;2.35;1.40;;;2.30;79.60;;;;;;5070907;28;20393;-73
2023/12/10 05:11:32;;;;;;;3.63;2.60;;;2.20;79.40;;;;;;5073372;28;20053;-73
2023/12/10 05:13:58;;;;;;;3.30;2.20;;;2.20;79.40;;;;;;5075949;28;20044;-73
2023/12/10 05:16:24;;;;;;;4.60;2.55;;;2.20;79.30;;;;;;5074761;28;20039;-70
2023/12/10 05:18:50;;;;;;;4.47;2.45;;;2.30;79.40;;;;;;5076235;28;20105;-70
2023/12/10 05:21:16;;;;;;;5.93;3.38;;;2.30;79.30;;;;;;5074178;28;20448;-73
2023/12/10 05:23:42;;;;;;;6.32;3.13;;;2.30;79.30;;;;;;5075766;28;20045;-73
2023/12/10 05:26:08;;;;;;;6.50;4.50;;;2.20;79.30;;;;;;5074335;28;20039;-72
2023/12/10 05:28:34;;;;;;;4.07;2.55;;;2.20;79.30;;;;;;5074517;28;20040;-70
2023/12/10 05:31:00;;;;;;;4.72;2.42;;;2.20;79.30;;;;;;5075287;28;20028;-73
2023/12/10 05:33:26;;;;;;;8.93;3.10;;;2.20;79.30;;;;;;5075613;28;20086;-73
2023/12/10 05:35:52;;;;;;;6.28;3.30;;;2.20;79.40;;;;;;5074217;28;20074;-70
2023/12/10 05:38:19;;;;;;;8.98;5.82;;;2.30;79.40;;;;;;5075478;28;20047;-70
2023/12/10 05:40:45;;;;;;;6.55;4.97;;;2.30;79.40;;;;;;5073874;28;20035;-73
2023/12/10 05:43:11;;;;;;;5.10;2.60;;;2.30;79.20;;;;;;5074052;28;20051;-73
2023/12/10 05:45:37;;;;;;;5.45;2.47;;;2.20;79.20;;;;;;5075764;28;20249;-71
2023/12/10 05:48:03;;;;;;;3.75;1.38;;;2.20;79.60;;;;;;5074205;28;20490;-73
2023/12/10 05:50:29;;;;;;;4.38;2.22;;;2.00;80.10;;;;;;5073495;28;20397;-71
2023/12/10 05:52:55;;;;;;;3.78;2.30;;;2.00;80.40;;;;;;5073761;28;20032;-71
2023/12/10 05:55:21;;;;;;;6.63;3.10;;;2.00;80.60;;;;;;5074928;28;20083;-70
2023/12/10 05:57:47;;;;;;;6.50;3.33;;;1.90;80.60;;;;;;5074084;28;20082;-74
2023/12/10 06:00:13;;;;;;;6.72;2.53;;;2.00;80.40;;;;;;5074503;28;20094;-73
2023/12/10 06:02:40;;;;;;;3.15;2.03;;;2.00;80.70;;;;;;5090679;28;20032;-73
2023/12/10 06:05:06;;;;;;;5.55;2.75;;;1.90;81.10;;;;;;5075071;28;20069;-72
2023/12/10 06:07:32;;;;;;;3.58;2.38;;;1.90;80.70;;;;;;5075188;28;20050;-70
2023/12/10 06:09:58;;;;;;;4.57;1.92;;;1.70;81.80;;;;;;5075392;28;20130;-71
2023/12/10 06:12:24;;;;;;;3.38;1.92;;;1.70;82.30;;;;;;5073031;28;20161;-72
2023/12/10 06:14:50;;;;;;;4.32;2.58;;;1.70;82.50;;;;;;5075078;28;20033;-73
2023/12/10 06:17:16;;;;;;;7.80;2.85;;;1.70;82.70;;;;;;5074675;28;20040;-71
2023/12/10 06:19:42;;;;;;;7.05;2.88;;;1.70;82.90;;;;;;5073798;28;20551;-72
2023/12/10 06:22:08;;;;;;;9.50;2.33;;;1.60;82.90;;;;;;5073959;28;20033;-70
2023/12/10 06:24:35;;;;;;;4.95;2.80;;;1.70;82.90;;;;;;5074967;28;20086;-73
2023/12/10 06:27:01;;;;;;;8.30;4.60;;;1.80;82.60;;;;;;5074797;28;20036;-70
2023/12/10 06:29:27;;;;;;;3.03;1.73;;;1.70;82.60;;;;;;5074887;28;20112;-70
2023/12/10 06:31:53;;;;;;;4.78;3.33;;;1.70;82.90;;;;;;5074141;28;20040;-70
2023/12/10 06:34:19;;;;;;;5.10;2.03;;;1.60;83.20;;;;;;5074735;28;20068;-73
2023/12/10 06:36:45;;;;;;;3.50;2.03;;;1.60;83.40;;;;;;5074569;28;20029;-71
2023/12/10 06:39:11;;;;;;;9.02;3.25;;;1.60;83.50;;;;;;5074695;28;20553;-73
2023/12/10 06:41:38;;;;;;;4.22;2.85;;;1.60;83.70;;;;;;5072614;28;20042;-73
2023/12/10 06:44:05;;;;;;;3.25;2.47;;;1.60;83.80;;;;;;5072878;28;20037;-70
2023/12/10 06:46:31;;;;;;;5.65;2.25;;;1.70;83.80;;;;;;5090066;28;20366;-73
2023/12/10 06:48:57;;;;;;;3.78;2.83;;;1.70;83.70;;;;;;5073081;28;20041;-71
2023/12/10 06:51:24;;;;;;;5.45;2.13;;;1.70;83.70;;;;;;5073700;28;20039;-70
2023/12/10 06:53:50;;;;;;;7.82;4.10;;;1.80;83.70;;;;;;5074144;28;20036;-71
2023/12/10 06:56:16;;;;;;;2.85;1.90;;;1.80;83.50;;;;;;5073951;28;20033;-73
2023/12/10 06:58:42;;;;;;;3.33;1.88;;;1.80;83.40;;;;;;5072901;28;20608;-73
2023/12/10 07:01:08;;;;;;;4.25;2.70;;;1.80;83.40;;;;;;5073687;28;20032;-71
2023/12/10 07:03:34;;;;;;;5.13;2.45;;;1.90;83.40;;;;;;5089338;28;20041;-71
2023/12/10 07:06:03;;;;;;;7.80;3.13;;;1.90;83.20;;;;;;5072680;28;20112;-72
2023/12/10 07:08:31;;;;;;;2.47;2.13;;;1.90;83.20;;;;;;5074248;28;20459;-73
2023/12/10 07:10:57;;;;;;;5.15;3.50;;;1.90;82.50;;;;;;5073319;28;20028;-73
2023/12/10 07:13:23;;;;;;;2.25;1.33;;;1.90;82.10;;;;;;5073827;28;20036;-73
2023/12/10 07:15:49;;;;;;;2.70;1.55;;;2.00;82.50;;;;;;5072328;28;20036;-70
2023/12/10 07:18:15;;;;;;;7.55;1.67;;;2.10;82.30;;;;;;5073772;28;20044;-70
2023/12/10 07:20:42;;;;;;;3.47;1.95;;;2.20;82.00;;;;;;5088651;28;20443;-71
2023/12/10 07:23:08;;;;;;;4.53;2.58;;;2.20;81.10;;;;;;5073271;28;20041;-73
2023/12/10 07:25:34;;;;;;;3.10;2.42;;;2.20;81.50;;;;;;5089236;28;20056;-73
2023/12/10 07:28:00;;;;;;;3.95;2.15;;;2.30;81.60;;;;;;5072559;28;20043;-71
2023/12/10 07:30:26;;;;;;;6.95;3.20;;;2.30;81.40;;;;;;5072971;28;20056;-71
2023/12/10 07:32:53;;;;;;;10.98;4.72;;;2.30;81.20;;;;;;5072441;28;20127;-73
2023/12/10 07:35:19;;;;;;;9.82;5.88;;;2.30;81.40;;;;;;5071928;28;20425;-73
2023/12/10 07:37:45;;;;;;;9.15;5.75;;;2.40;81.20;;;;;;5072469;28;20062;-73
2023/12/10 07:40:12;;;;;;;8.18;5.28;;;2.40;81.20;;;;;;5054613;28;20078;-73
2023/12/10 07:42:38;;;;;;;11.85;6.35;;;2.50;80.60;;;;;;5071857;28;20048;-73
2023/12/10 07:45:05;;;;;;;7.03;4.80;;;2.50;81.10;;;;;;5071808;28;20032;-70
2023/12/10 07:47:31;;;;;;;7.20;4.68;;;2.50;80.80;;;;;;5071971;28;20033;-72
2023/12/10 07:49:57;;;;;;;9.45;4.05;;;2.50;80.90;;;;;;5073218;28;20041;-73
2023/12/10 07:52:23;;;;;;;6.03;3.28;;;2.60;80.90;;;;;;5054322;28;20114;-72
2023/12/10 07:54:50;;;;;;;7.93;4.32;;;2.60;80.70;;;;;;5054976;28;20032;-71
2023/12/10 07:57:16;;;;;;;;;;;2.60;80.00;;;;;;5073604;28;20089;-71
2023/12/10 07:59:42;;;;;;;8.65;4.32;;;2.70;80.70;;;;;;5071574;28;19916;-73
2023/12/10 08:02:08;;;;;;;11.02;3.22;;;2.60;80.40;;;;;;5070860;28;20688;-73
2023/12/10 08:04:34;;;;;;;4.68;2.33;;;2.60;80.30;;;;;;5071271;28;20081;-70
2023/12/10 08:07:01;;;;;;;4.15;2.33;;;2.70;80.30;;;;;;5071519;28;20410;-71
2023/12/10 08:09:28;;;;;;;8.57;5.97;;;2.70;80.30;;;;;;5071690;28;20478;-72
2023/12/10 08:11:54;;;;;;;10.75;7.05;;;2.70;80.30;;;;;;5072371;28;20029;-71
2023/12/10 08:14:25;;;;;;;12.63;7.45;;;2.70;80.30;;;;;;5071260;28;20041;-73
2023/12/10 08:16:51;;;;;;;7.18;5.18;;;2.70;80.30;;;;;;5072687;28;20039;-73
2023/12/10 08:19:17;;;;;;;15.65;8.45;;;2.70;79.60;;;;;;5072837;28;20047;-70
2023/12/10 08:21:44;;;;;;;6.50;4.22;;;2.80;80.00;;;;;;5070842;28;20040;-71
2023/12/10 08:24:10;;;;;;;20.20;12.82;;;2.80;79.20;;;;;;5072532;28;20428;-73
2023/12/10 08:26:36;;;;;;;;;;;2.90;79.20;;;;;;5071680;28;20031;-73
2023/12/10 08:29:02;;;;;;;32.08;13.68;;;2.90;80.60;;;;;;5071205;28;20408;-73
2023/12/10 08:31:28;;;;;;;;;;;2.90;80.30;;;;;;5054445;28;20044;-70
2023/12/10 08:33:54;;;;;;;15.88;9.15;;;2.80;79.40;;;;;;5054220;28;20332;-73
2023/12/10 08:36:20;;;;;;;10.45;5.30;;;2.80;79.50;;;;;;5072482;28;20444;-72
2023/12/10 08:38:47;;;;;;;6.60;4.25;;;2.80;79.60;;;;;;5071026;28;20064;-71
2023/12/10 08:41:13;;;;;;;5.88;2.28;;;2.80;79.60;;;;;;5070463;28;20406;-70
2023/12/10 08:43:39;;;;;;;14.35;2.75;;;2.90;79.70;;;;;;5070759;28;20451;-71
2023/12/10 08:46:06;;;;;;;7.95;4.57;;;3.00;79.60;;;;;;5071018;28;20512;-71
2023/12/10 08:48:32;;;;;;;7.00;4.95;;;3.00;79.40;;;;;;5071104;28;20064;-70
2023/12/10 08:50:58;;;;;;;6.95;3.42;;;3.00;79.20;;;;;;5070349;28;20033;-73
2023/12/10 08:53:24;;;;;;;17.95;10.55;;;3.10;79.30;;;;;;5072222;28;20493;-70
2023/12/10 08:55:51;;;;;;;16.38;8.52;;;3.20;79.20;;;;;;5070789;28;20036;-73
2023/12/10 08:58:17;;;;;;;;;;;3.20;78.90;;;;;;5071548;28;20033;-73
2023/12/10 09:00:43;;;;;;;8.85;4.82;;;3.20;79.00;;;;;;5070194;28;20374;-70
2023/12/10 09:03:10;;;;;;;4.43;2.67;;;3.20;78.70;;;;;;5054189;28;20090;-73
2023/12/10 09:05:36;;;;;;;5.68;2.88;;;3.30;78.60;;;;;;5071890;28;20045;-71
2023/12/10 09:08:02;;;;;;;6.93;4.15;;;3.40;78.50;;;;;;5061107;28;20108;-73
2023/12/10 09:10:28;;;;;;;3.83;1.85;;;3.40;78.40;;;;;;5033458;28;20033;-73
2023/12/10 09:12:54;;;;;;;9.15;4.07;;;3.40;78.00;;;;;;5050672;28;20056;-73
2023/12/10 09:15:20;;;;;;;7.43;3.65;;;3.40;78.20;;;;;;5051658;28;20043;-71
2023/12/10 09:17:46;;;;;;;;;;;3.40;78.00;;;;;;5034433;28;20029;-70
2023/12/10 09:20:12;;;;;;;7.38;3.63;;;3.60;77.90;;;;;;5050027;28;19916;-71
2023/12/10 09:22:39;;;;;;;7.93;5.05;;;3.50;77.30;;;;;;5050591;28;20095;-73
2023/12/10 09:25:05;;;;;;;3.95;2.85;;;3.60;77.10;;;;;;5052121;28;20442;-70
2023/12/10 09:27:31;;;;;;;7.30;4.80;;;3.60;77.00;;;;;;5050781;28;20107;-71
2023/12/10 09:29:58;;;;;;;10.20;4.45;;;3.60;77.10;;;;;;5050749;28;20036;-71
2023/12/10 09:32:27;;;;;;;3.78;1.70;;;3.70;77.00;;;;;;5049988;28;20036;-73
2023/12/10 09:34:54;;;;;;;3.13;2.15;;;3.70;76.10;;;;;;5051996;28;20417;-73
2023/12/10 09:37:20;;;;;;;6.75;2.78;;;3.70;76.40;;;;;;5051682;28;20033;-71
2023/12/10 09:39:46;;;;;;;4.05;2.38;;;3.80;76.70;;;;;;5051994;28;20470;-73
2023/12/10 09:42:13;;;;;;;;;;;3.80;76.50;;;;;;5033669;28;20110;-73
2023/12/10 09:44:39;;;;;;;5.38;2.97;;;3.90;76.80;;;;;;5051768;28;19947;-73
2023/12/10 09:47:24;;;;;;;;;;;4.00;77.30;;;;;;5051198;28;20087;-73
2023/12/10 09:49:56;;;;;;;7.50;4.57;;;4.00;76.50;;;;;;5050496;28;20361;-70
2023/12/10 09:52:22;;;;;;;8.48;4.18;;;4.00;76.00;;;;;;5033681;28;20044;-72
2023/12/10 09:54:48;;;;;;;6.28;2.42;;;4.10;76.20;;;;;;5050091;28;20033;-70
2023/12/10 09:57:14;;;;;;;1.85;1.33;;;4.20;76.10;;;;;;5052679;28;20033;-71
2023/12/10 09:59:40;;;;;;;4.30;2.78;;;4.20;75.70;;;;;;5055470;28;20497;-73
2023/12/10 10:02:07;;;;;;;3.60;2.45;;;4.20;75.50;;;;;;5053566;28;20041;-73
2023/12/10 10:04:33;;;;;;;4.18;1.95;;;4.30;74.80;;;;;;5053517;28;20411;-73
2023/12/10 10:07:04;;;;;;;9.82;3.67;;;4.40;75.00;;;;;;5053941;28;20029;-70
2023/12/10 10:09:33;;;;;;;4.97;2.42;;;4.40;75.10;;;;;;5037100;28;20049;-73
2023/12/10 10:11:59;;;;;;;5.53;2.22;;;4.40;75.20;;;;;;5053255;28;20433;-71
2023/12/10 10:14:25;;;;;;;;;;;4.50;74.70;;;;;;5053895;28;20041;-71
2023/12/10 10:16:51;;;;;;;3.80;2.28;;;4.50;75.10;;;;;;5053299;28;20388;-72
2023/12/10 10:19:18;;;;;;;4.03;2.67;;;4.50;74.70;;;;;;5069812;28;20025;-73
2023/12/10 10:21:44;;;;;;;7.10;3.20;;;4.50;75.00;;;;;;5065889;28;20493;-71
2023/12/10 10:24:12;;;;;;;6.78;2.45;;;4.50;75.00;;;;;;5064088;28;20041;-71
2023/12/10 10:26:39;;;;;;;1.92;0.93;;;4.60;74.60;;;;;;5060784;28;20383;-71
2023/12/10 10:29:07;;;;;;;3.60;2.67;;;4.60;74.50;;;;;;5067807;28;20040;-70
2023/12/10 10:31:34;;;;;;;2.67;1.50;;;4.70;74.60;;;;;;5069385;28;20071;-71
2023/12/10 10:34:04;;;;;;;3.25;1.63;;;4.70;74.70;;;;;;5082002;28;20496;-70
2023/12/10 10:36:32;;;;;;;10.45;6.18;;;4.80;74.30;;;;;;5072969;28;20356;-71
2023/12/10 10:38:58;;;;;;;9.43;3.45;;;4.90;73.80;;;;;;5056541;28;20052;-74
2023/12/10 10:41:25;;;;;;;;;;;4.80;74.20;;;;;;5074581;28;20040;-74
2023/12/10 10:43:51;;;;;;;5.22;2.83;;;4.80;74.00;;;;;;5072792;28;20419;-70
2023/12/10 10:46:19;;;;;;;;;;;4.80;74.10;;;;;;5076043;28;20036;-73
2023/12/10 10:48:52;;;;;;;6.32;3.63;;;4.70;74.30;;;;;;5070533;28;19927;-73
2023/12/10 10:51:26;;;;;;;3.30;1.85;;;4.60;74.50;;;;;;5053928;28;20037;-70
2023/12/10 10:53:56;;;;;;;3.90;2.08;;;4.70;74.90;;;;;;5052338;28;20037;-72
2023/12/10 10:56:24;;;;;;;4.80;2.95;;;4.70;75.10;;;;;;5052500;28;20036;-70
2023/12/10 10:58:50;;;;;;;5.45;2.50;;;4.70;74.80;;;;;;5036013;28;20143;-71
2023/12/10 11:01:54;;;;;;;4.45;2.92;;;4.70;75.00;;;;;;5053119;28;20045;-71
2023/12/10 11:04:21;;;;;;;3.10;1.75;;;4.50;75.30;;;;;;5053443;28;20061;-73
2023/12/10 11:06:50;;;;;;;3.80;2.75;;;4.60;75.70;;;;;;5052562;28;20100;-73
2023/12/10 11:09:17;;;;;;;3.95;2.50;;;4.60;75.40;;;;;;5053063;28;20049;-70
2023/12/10 11:11:43;;;;;;;9.40;3.08;;;4.50;75.90;;;;;;5053306;28;20064;-71
2023/12/10 11:14:20;;;;;;;3.28;2.65;;;4.60;76.00;;;;;;5069067;28;20041;-73
2023/12/10 11:17:06;;;;;;;3.15;2.22;;;4.60;75.50;;;;;;5069293;28;20044;-73
2023/12/10 11:19:33;;;;;;;3.63;1.90;;;4.60;75.40;;;;;;5052312;28;20049;-72
2023/12/10 11:22:01;;;;;;;3.70;2.25;;;4.60;75.20;;;;;;5053306;28;20124;-70
2023/12/10 11:24:27;;;;;;;6.60;3.10;;;4.70;75.10;;;;;;5055393;28;20052;-71
2023/12/10 11:26:53;;;;;;;6.10;3.80;;;4.70;75.30;;;;;;5058571;28;20036;-71
2023/12/10 11:29:19;;;;;;;8.00;4.35;;;4.70;75.80;;;;;;5061638;28;20033;-73
2023/12/10 11:31:45;;;;;;;5.43;3.88;;;4.70;75.80;;;;;;5064768;28;20033;-70
2023/12/10 11:34:12;;;;;;;6.75;4.03;;;4.80;75.40;;;;;;5050579;28;20032;-70
2023/12/10 11:36:38;;;;;;;7.25;4.50;;;4.80;74.60;;;;;;5072058;28;20099;-73
2023/12/10 11:39:13;;;;;;;6.80;3.70;;;4.90;74.50;;;;;;5071982;28;20043;-70
2023/12/10 11:41:42;;;;;;;4.72;2.72;;;4.90;75.10;;;;;;5071099;28;20033;-70
2023/12/10 11:44:10;;;;;;;7.05;3.70;;;5.00;74.90;;;;;;5071823;28;20394;-73
2023/12/10 11:46:36;;;;;;;5.00;2.83;;;5.10;74.40;;;;;;5071687;28;20108;-73
2023/12/10 11:49:02;;;;;;;4.72;3.55;;;5.20;74.90;;;;;;5071708;28;20041;-71
2023/12/10 11:51:28;;;;;;;4.05;2.63;;;5.20;74.60;;;;;;5072563;28;20042;-73
2023/12/10 11:53:55;;;;;;;5.55;3.05;;;5.20;74.40;;;;;;5072982;28;20086;-73
2023/12/10 11:56:21;;;;;;;3.33;2.85;;;5.10;74.60;;;;;;5071761;28;20044;-71
2023/12/10 11:58:47;;;;;;;4.60;2.83;;;5.00;75.00;;;;;;5071826;28;20041;-71
2023/12/10 12:01:16;;;;;;;3.90;1.90;;;5.10;74.70;;;;;;5054414;28;20041;-70
2023/12/10 12:03:42;;;;;;;6.68;3.65;;;5.20;74.40;;;;;;5054428;28;20398;-71
2023/12/10 12:06:08;;;;;;;4.65;3.33;;;5.40;74.20;;;;;;5071574;28;20028;-70
2023/12/10 12:08:34;;;;;;;6.38;3.28;;;5.40;73.80;;;;;;5054788;28;20053;-71
2023/12/10 12:11:01;;;;;;;6.63;4.07;;;5.40;73.50;;;;;;5067194;28;20037;-73
2023/12/10 12:13:29;;;;;;;4.95;2.42;;;5.50;73.40;;;;;;5072276;28;20028;-72
2023/12/10 12:15:56;;;;;;;4.15;2.47;;;5.60;73.00;;;;;;5072156;28;20029;-71
2023/12/10 12:18:41;;;;;;;3.92;1.50;;;5.70;72.40;;;;;;5057216;28;20539;-71
2023/12/10 12:21:07;;;;;;;2.20;1.45;;;5.70;72.90;;;;;;5072306;28;20067;-71
2023/12/10 12:23:33;;;;;;;7.63;3.67;;;5.80;72.70;;;;;;5070771;28;20054;-71
2023/12/10 12:25:59;;;;;;;11.02;2.38;;;5.90;72.60;;;;;;5072532;28;20063;-70
2023/12/10 12:28:25;;;;;;;4.43;2.75;;;6.10;72.10;;;;;;5064739;28;20071;-70
2023/12/10 12:30:51;;;;;;;4.00;1.65;;;6.00;71.60;;;;;;5069045;28;20028;-70
2023/12/10 12:33:18;;;;;;;5.93;2.67;;;6.00;71.80;;;;;;5072179;28;20484;-71
2023/12/10 12:35:44;;;;;;;2.97;2.33;;;5.90;72.30;;;;;;5071064;28;20033;-73
2023/12/10 12:38:10;;;;;;;;;;;6.00;71.80;;;;;;5071600;28;20047;-74
2023/12/10 12:40:36;;;;;;;4.20;2.65;;;6.10;73.50;;;;;;5071956;28;19917;-73
2023/12/10 12:43:02;;;;;;;7.22;3.65;;;6.10;71.60;;;;;;5072183;28;20101;-73
2023/12/10 12:45:28;;;;;;;7.10;2.90;;;6.10;71.90;;;;;;5063749;28;20082;-73
2023/12/10 12:47:55;;;;;;;5.55;1.92;;;6.10;71.70;;;;;;5050868;28;20033;-73
2023/12/10 12:50:21;;;;;;;5.13;3.28;;;6.20;71.70;;;;;;5068492;28;20032;-70
2023/12/10 12:52:47;;;;;;;4.10;1.77;;;6.10;72.00;;;;;;5072032;28;20107;-73
2023/12/10 12:55:15;;;;;;;2.78;1.90;;;6.20;71.50;;;;;;5071675;28;20032;-73
2023/12/10 12:57:41;;;;;;;3.60;2.10;;;6.20;72.00;;;;;;5071179;28;20348;-71
2023/12/10 13:00:08;;;;;;;;;;;6.30;72.00;;;;;;5072149;28;20047;-73
2023/12/10 13:02:34;;;;;;;3.30;1.83;;;6.30;71.30;;;;;;5063023;28;19913;-73